createdAt,value
2024-01-15T00:00:31.486Z,26.35
2024-01-15T00:01:31.329Z,26.37
2024-01-15T00:02:31.285Z,26.35
2024-01-15T00:03:31.401Z,26.37
2024-01-15T00:04:31.508Z,26.35
2024-01-15T00:05:31.405Z,26.34
2024-01-15T00:06:31.515Z,26.35
2024-01-15T00:07:31.497Z,26.37
2024-01-15T00:08:31.445Z,26.38
2024-01-15T00:09:31.521Z,26.35
2024-01-15T00:10:31.541Z,26.34
2024-01-15T00:11:31.542Z,26.37
2024-01-15T00:12:31.649Z,26.38
2024-01-15T00:13:31.634Z,26.35
2024-01-15T00:14:31.676Z,26.37
2024-01-15T00:15:31.790Z,26.39
2024-01-15T00:16:31.710Z,26.39
2024-01-15T00:17:31.744Z,26.42
2024-01-15T00:18:31.892Z,26.42
2024-01-15T00:19:31.915Z,26.44
2024-01-15T00:20:31.847Z,26.44
2024-01-15T00:21:31.891Z,26.44
2024-01-15T00:22:31.910Z,26.45
2024-01-15T00:23:31.901Z,26.46
2024-01-15T00:24:31.979Z,26.51
2024-01-15T00:25:32.024Z,26.48
2024-01-15T00:26:31.980Z,26.51
2024-01-15T00:27:32.064Z,26.52
2024-01-15T00:28:32.048Z,26.55
2024-01-15T00:29:32.035Z,26.55
2024-01-15T00:30:32.145Z,26.54
2024-01-15T00:31:32.249Z,26.59
2024-01-15T00:32:32.164Z,26.58
2024-01-15T00:33:32.254Z,26.62
2024-01-15T00:34:32.306Z,26.62
2024-01-15T00:35:32.210Z,26.62
2024-01-15T00:36:32.243Z,26.63
2024-01-15T00:37:32.229Z,26.69
2024-01-15T00:38:32.277Z,26.66
2024-01-15T00:39:32.322Z,26.68
2024-01-15T00:40:32.324Z,26.71
2024-01-15T00:41:32.314Z,26.72
2024-01-15T00:42:32.461Z,26.73
2024-01-15T00:43:32.427Z,26.72
2024-01-15T00:44:32.432Z,26.75
2024-01-15T00:45:32.567Z,26.76
2024-01-15T00:46:32.570Z,26.79
2024-01-15T00:47:32.669Z,26.78
2024-01-15T00:48:32.883Z,26.80
2024-01-15T00:49:32.797Z,26.85
2024-01-15T00:50:32.740Z,26.85
2024-01-15T00:51:32.748Z,26.86
2024-01-15T00:52:32.853Z,26.86
2024-01-15T00:53:32.877Z,26.89
2024-01-15T00:54:32.978Z,26.89
2024-01-15T00:55:32.983Z,26.91
2024-01-15T00:56:33.025Z,26.94
2024-01-15T00:57:33.110Z,26.91
2024-01-15T00:58:33.122Z,26.91
2024-01-15T00:59:33.181Z,26.93
2024-01-15T01:00:33.305Z,26.94
2024-01-15T01:01:33.330Z,26.93
2024-01-15T01:02:33.321Z,26.97
2024-01-15T01:03:33.414Z,26.99
2024-01-15T01:04:33.435Z,26.99
2024-01-15T01:05:33.477Z,26.99
2024-01-15T01:06:34.579Z,27.03
2024-01-15T01:07:33.578Z,27.00
2024-01-15T01:08:33.597Z,27.03
2024-01-15T01:09:33.625Z,27.04
2024-01-15T01:10:33.697Z,27.06
2024-01-15T01:11:33.724Z,27.06
2024-01-15T01:12:33.822Z,27.07
2024-01-15T01:13:33.801Z,27.07
2024-01-15T01:14:33.841Z,27.10
2024-01-15T01:15:33.942Z,27.11
2024-01-15T01:16:33.929Z,27.14
2024-01-15T01:17:34.080Z,27.13
2024-01-15T01:18:34.185Z,27.13
2024-01-15T01:19:34.236Z,27.14
2024-01-15T01:20:34.204Z,27.15
2024-01-15T01:21:34.213Z,27.17
2024-01-15T01:22:34.207Z,27.15
2024-01-15T01:23:34.304Z,27.15
2024-01-15T01:24:34.311Z,27.18
2024-01-15T01:25:34.368Z,27.18
2024-01-15T01:26:34.371Z,27.18
2024-01-15T01:27:34.470Z,27.18
2024-01-15T01:28:34.480Z,27.18
2024-01-15T01:29:34.544Z,27.20
2024-01-15T01:30:34.657Z,27.23
2024-01-15T01:31:34.651Z,27.21
2024-01-15T01:32:34.760Z,27.23
2024-01-15T01:33:34.741Z,27.24
2024-01-15T01:34:35.059Z,27.27
2024-01-15T01:35:34.767Z,27.27
2024-01-15T01:36:34.853Z,27.23
2024-01-15T01:37:34.859Z,27.25
2024-01-15T01:38:34.892Z,27.27
2024-01-15T01:39:35.029Z,27.27
2024-01-15T01:40:34.985Z,27.28
2024-01-15T01:41:35.022Z,27.28
2024-01-15T01:42:35.084Z,27.27
2024-01-15T01:43:35.120Z,27.30
2024-01-15T01:44:35.104Z,27.30
2024-01-15T01:45:35.174Z,27.34
2024-01-15T01:46:35.152Z,27.30
2024-01-15T01:47:35.252Z,27.30
2024-01-15T01:48:35.356Z,27.31
2024-01-15T01:49:35.374Z,27.31
2024-01-15T01:50:35.355Z,27.33
2024-01-15T01:51:35.337Z,27.33
2024-01-15T01:52:35.366Z,27.33
2024-01-15T01:53:35.392Z,27.31
2024-01-15T01:54:35.479Z,27.35
2024-01-15T01:55:35.451Z,27.34
2024-01-15T01:56:35.494Z,27.35
2024-01-15T01:57:35.544Z,27.37
2024-01-15T01:58:35.573Z,27.38
2024-01-15T01:59:35.569Z,27.40
2024-01-15T02:00:35.643Z,27.40
2024-01-15T02:01:35.689Z,27.38
2024-01-15T02:02:35.770Z,27.38
2024-01-15T02:03:35.809Z,27.37
2024-01-15T02:04:35.822Z,27.38
2024-01-15T02:05:35.891Z,27.42
2024-01-15T02:06:35.953Z,27.40
2024-01-15T02:07:35.846Z,27.41
2024-01-15T02:08:35.909Z,27.40
2024-01-15T02:09:36.023Z,27.40
2024-01-15T02:10:35.957Z,27.42
2024-01-15T02:11:35.995Z,27.41
2024-01-15T02:12:36.084Z,27.42
2024-01-15T02:13:36.064Z,27.42
2024-01-15T02:14:36.083Z,27.44
2024-01-15T02:15:36.162Z,27.42
2024-01-15T02:16:36.149Z,27.46
2024-01-15T02:17:36.204Z,27.44
2024-01-15T02:18:36.315Z,27.45
2024-01-15T02:19:36.449Z,27.46
2024-01-15T02:20:36.313Z,27.46
2024-01-15T02:21:36.359Z,27.44
2024-01-15T02:22:36.387Z,27.48
2024-01-15T02:23:36.394Z,27.46
2024-01-15T02:24:36.585Z,27.46
2024-01-15T02:25:36.476Z,27.48
2024-01-15T02:26:36.509Z,27.46
2024-01-15T02:27:36.544Z,27.48
2024-01-15T02:28:36.582Z,27.49
2024-01-15T02:29:36.576Z,27.49
2024-01-15T02:30:36.775Z,27.49
2024-01-15T02:31:36.751Z,27.49
2024-01-15T02:32:36.798Z,27.51
2024-01-15T02:33:36.959Z,27.51
2024-01-15T02:34:36.970Z,27.48
2024-01-15T02:35:36.779Z,27.51
2024-01-15T02:36:36.877Z,27.51
2024-01-15T02:37:36.848Z,27.51
2024-01-15T02:38:36.880Z,27.49
2024-01-15T02:39:36.967Z,27.54
2024-01-15T02:40:37.106Z,27.52
2024-01-15T02:41:36.982Z,27.51
2024-01-15T02:42:37.028Z,27.54
2024-01-15T02:43:37.011Z,27.54
2024-01-15T02:44:37.045Z,27.52
2024-01-15T02:45:37.221Z,27.54
2024-01-15T02:46:37.154Z,27.52
2024-01-15T02:47:38.163Z,27.55
2024-01-15T02:48:37.372Z,27.55
2024-01-15T02:49:37.289Z,27.52
2024-01-15T02:50:37.360Z,27.54
2024-01-15T02:51:37.404Z,27.54
2024-01-15T02:52:37.357Z,27.52
2024-01-15T02:53:37.370Z,27.54
2024-01-15T02:54:37.450Z,27.55
2024-01-15T02:55:37.423Z,27.58
2024-01-15T02:56:37.485Z,27.56
2024-01-15T02:57:37.585Z,27.59
2024-01-15T02:58:37.547Z,27.59
2024-01-15T02:59:37.559Z,27.59
2024-01-15T03:00:37.694Z,27.59
2024-01-15T03:01:37.682Z,27.61
2024-01-15T03:02:37.638Z,27.59
2024-01-15T03:03:37.814Z,27.59
2024-01-15T03:04:37.789Z,27.59
2024-01-15T03:05:37.813Z,27.62
2024-01-15T03:06:37.854Z,27.59
2024-01-15T03:07:37.804Z,27.61
2024-01-15T03:08:37.853Z,27.61
2024-01-15T03:10:37.917Z,27.62
2024-01-15T03:11:37.966Z,27.61
2024-01-15T03:12:38.049Z,27.61
2024-01-15T03:13:38.031Z,27.63
2024-01-15T03:14:38.695Z,27.63
2024-01-15T03:15:38.138Z,27.62
2024-01-15T03:16:38.084Z,27.63
2024-01-15T03:17:38.177Z,27.62
2024-01-15T03:18:38.195Z,27.62
2024-01-15T03:19:38.265Z,27.62
2024-01-15T03:20:38.216Z,27.63
2024-01-15T03:21:38.295Z,27.65
2024-01-15T03:22:38.310Z,27.65
2024-01-15T03:23:38.316Z,27.65
2024-01-15T03:24:38.428Z,27.66
2024-01-15T03:25:38.411Z,27.65
2024-01-15T03:26:38.440Z,27.65
2024-01-15T03:27:38.497Z,27.65
2024-01-15T03:28:38.500Z,27.65
2024-01-15T03:29:38.515Z,27.63
2024-01-15T03:30:38.622Z,27.68
2024-01-15T03:31:38.682Z,27.65
2024-01-15T03:32:38.685Z,27.66
2024-01-15T03:33:38.779Z,27.66
2024-01-15T03:34:38.819Z,27.65
2024-01-15T03:35:38.729Z,27.68
2024-01-15T03:36:38.822Z,27.66
2024-01-15T03:37:38.797Z,27.66
2024-01-15T03:38:38.822Z,27.65
2024-01-15T03:39:38.940Z,27.68
2024-01-15T03:40:39.101Z,27.66
2024-01-15T03:41:38.927Z,27.66
2024-01-15T03:42:38.990Z,27.65
2024-01-15T03:43:38.997Z,27.69
2024-01-15T03:44:39.019Z,27.68
2024-01-15T03:45:39.159Z,27.68
2024-01-15T03:46:39.087Z,27.68
2024-01-15T03:47:39.126Z,27.69
2024-01-15T03:48:39.212Z,27.68
2024-01-15T03:49:39.395Z,27.71
2024-01-15T03:50:39.199Z,27.68
2024-01-15T03:51:39.334Z,27.71
2024-01-15T03:52:39.228Z,27.72
2024-01-15T03:53:39.277Z,27.71
2024-01-15T03:54:39.335Z,27.71
2024-01-15T03:55:39.321Z,27.71
2024-01-15T03:56:40.149Z,27.71
2024-01-15T03:57:39.456Z,27.71
2024-01-15T03:58:39.410Z,27.72
2024-01-15T03:59:39.438Z,27.73
2024-01-15T04:00:39.532Z,27.72
2024-01-15T04:01:39.559Z,27.72
2024-01-15T04:02:39.562Z,27.68
2024-01-15T04:03:39.648Z,27.73
2024-01-15T04:04:39.810Z,27.72
2024-01-15T04:05:39.621Z,27.72
2024-01-15T04:06:39.750Z,27.72
2024-01-15T04:07:39.672Z,27.72
2024-01-15T04:08:39.682Z,27.72
2024-01-15T04:09:39.775Z,27.73
2024-01-15T04:10:39.740Z,27.73
2024-01-15T04:11:39.758Z,27.72
2024-01-15T04:12:39.847Z,27.75
2024-01-15T04:13:41.548Z,27.75
2024-01-15T04:14:39.814Z,27.75
2024-01-15T04:15:39.871Z,27.75
2024-01-15T04:16:39.834Z,27.75
2024-01-15T04:17:39.892Z,27.76
2024-01-15T04:18:39.922Z,27.75
2024-01-15T04:19:39.860Z,27.76
2024-01-15T04:20:47.002Z,27.72
2024-01-15T04:21:47.066Z,27.75
2024-01-15T04:22:46.988Z,27.72
2024-01-15T04:23:47.017Z,27.78
2024-01-15T04:24:47.022Z,27.76
2024-01-15T04:25:47.027Z,27.76
2024-01-15T04:26:47.017Z,27.73
2024-01-15T04:27:47.191Z,27.78
2024-01-15T04:28:47.029Z,27.78
2024-01-15T04:29:47.041Z,27.76
2024-01-15T04:30:47.120Z,27.76
2024-01-15T04:31:54.311Z,27.73
2024-01-15T04:32:54.367Z,27.73
2024-01-15T04:33:54.400Z,27.75
2024-01-15T04:34:54.448Z,27.76
2024-01-15T04:35:54.316Z,27.78
2024-01-15T04:36:54.327Z,27.75
2024-01-15T04:37:54.284Z,27.76
2024-01-15T04:38:54.288Z,27.76
2024-01-15T04:39:54.309Z,27.76
2024-01-15T04:40:56.937Z,27.76
2024-01-15T04:41:54.285Z,27.76
2024-01-15T04:42:54.365Z,27.75
2024-01-15T04:43:54.306Z,27.75
2024-01-15T04:44:54.294Z,27.73
2024-01-15T04:45:54.352Z,27.75
2024-01-15T04:46:54.336Z,27.76
2024-01-15T04:47:54.307Z,27.75
2024-01-15T04:48:54.406Z,27.73
2024-01-15T04:49:54.391Z,27.73
2024-01-15T04:50:54.291Z,27.73
2024-01-15T04:51:54.344Z,27.76
2024-01-15T04:52:54.321Z,27.75
2024-01-15T04:53:54.318Z,27.72
2024-01-15T04:54:54.357Z,27.73
2024-01-15T04:55:54.348Z,27.73
2024-01-15T04:56:54.337Z,27.73
2024-01-15T04:57:54.408Z,27.72
2024-01-15T04:58:54.377Z,27.72
2024-01-15T04:59:54.323Z,27.69
2024-01-15T05:00:54.488Z,27.71
2024-01-15T05:01:54.430Z,27.69
2024-01-15T05:02:54.346Z,27.69
2024-01-15T05:03:57.404Z,27.68
2024-01-15T05:04:54.349Z,27.68
2024-01-15T05:05:54.353Z,27.65
2024-01-15T05:06:54.421Z,27.65
2024-01-15T05:07:54.349Z,27.62
2024-01-15T05:08:54.365Z,27.65
2024-01-15T05:09:54.418Z,27.63
2024-01-15T05:10:54.364Z,27.63
2024-01-15T05:11:54.370Z,27.61
2024-01-15T05:12:54.385Z,27.61
2024-01-15T05:13:54.316Z,27.59
2024-01-15T05:14:54.327Z,27.58
2024-01-15T05:15:54.449Z,27.56
2024-01-15T05:16:54.382Z,27.58
2024-01-15T05:17:54.433Z,27.58
2024-01-15T05:18:54.440Z,27.58
2024-01-15T05:19:54.503Z,27.58
2024-01-15T05:20:54.348Z,27.58
2024-01-15T05:21:54.402Z,27.54
2024-01-15T05:22:54.368Z,27.54
2024-01-15T05:23:54.381Z,27.55
2024-01-15T05:24:54.456Z,27.56
2024-01-15T05:25:54.365Z,27.56
2024-01-15T05:26:54.411Z,27.54
2024-01-15T05:27:54.422Z,27.55
2024-01-15T05:28:54.378Z,27.55
2024-01-15T05:29:54.368Z,27.52
2024-01-15T05:30:54.442Z,27.51
2024-01-15T05:31:54.421Z,27.51
2024-01-15T05:32:54.447Z,27.51
2024-01-15T05:33:54.402Z,27.49
2024-01-15T05:34:54.450Z,27.52
2024-01-15T05:35:54.430Z,27.52
2024-01-15T05:36:54.418Z,27.51
2024-01-15T05:37:54.388Z,27.51
2024-01-15T05:38:54.394Z,27.49
2024-01-15T05:39:54.473Z,27.52
2024-01-15T05:40:54.417Z,27.52
2024-01-15T05:41:54.438Z,27.49
2024-01-15T05:42:54.507Z,27.51
2024-01-15T05:43:54.430Z,27.51
2024-01-15T05:44:54.423Z,27.51
2024-01-15T05:45:54.472Z,27.52
2024-01-15T05:46:54.414Z,27.49
2024-01-15T05:47:54.472Z,27.51
2024-01-15T05:48:54.558Z,27.49
2024-01-15T05:49:54.675Z,27.49
2024-01-15T05:50:54.397Z,27.48
2024-01-15T05:51:54.549Z,27.49
2024-01-15T05:52:54.496Z,27.46
2024-01-15T05:53:54.551Z,27.45
2024-01-15T05:54:54.560Z,27.51
2024-01-15T05:55:54.572Z,27.48
2024-01-15T05:56:54.621Z,27.46
2024-01-15T05:57:54.736Z,27.45
2024-01-15T05:58:54.681Z,27.46
2024-01-15T05:59:54.774Z,27.46
2024-01-15T06:01:19.149Z,27.48
2024-01-15T06:01:54.831Z,27.46
2024-01-15T06:02:54.786Z,27.46
2024-01-15T06:03:54.839Z,27.48
2024-01-15T06:04:54.815Z,27.48
2024-01-15T06:05:54.894Z,27.45
2024-01-15T06:06:54.850Z,27.46
2024-01-15T06:07:54.788Z,27.44
2024-01-15T06:08:54.787Z,27.46
2024-01-15T06:09:54.887Z,27.45
2024-01-15T06:10:54.829Z,27.44
2024-01-15T06:11:54.825Z,27.42
2024-01-15T06:12:54.867Z,27.44
2024-01-15T06:13:54.847Z,27.46
2024-01-15T06:14:54.816Z,27.45
2024-01-15T06:15:54.894Z,27.45
2024-01-15T06:16:54.810Z,27.44
2024-01-15T06:17:54.891Z,27.42
2024-01-15T06:18:54.965Z,27.41
2024-01-15T06:19:54.861Z,27.44
2024-01-15T06:20:54.805Z,27.44
2024-01-15T06:21:55.011Z,27.44
2024-01-15T06:22:54.784Z,27.45
2024-01-15T06:23:54.796Z,27.42
2024-01-15T06:24:54.923Z,27.41
2024-01-15T06:25:54.823Z,27.44
2024-01-15T06:26:54.808Z,27.42
2024-01-15T06:27:54.877Z,27.42
2024-01-15T06:28:54.836Z,27.44
2024-01-15T06:29:54.839Z,27.44
2024-01-15T06:30:54.903Z,27.41
2024-01-15T06:31:55.137Z,27.41
2024-01-15T06:32:54.942Z,27.40
2024-01-15T06:33:54.937Z,27.34
2024-01-15T06:34:54.854Z,27.27
2024-01-15T06:35:54.803Z,26.85
2024-01-15T06:36:55.097Z,26.03
2024-01-15T06:37:54.818Z,25.07
2024-01-15T06:38:54.856Z,24.39
2024-01-15T06:39:54.857Z,23.85
2024-01-15T06:40:54.847Z,23.22
2024-01-15T06:41:54.856Z,22.68
2024-01-15T06:42:54.900Z,22.45
2024-01-15T06:43:54.826Z,22.50
2024-01-15T06:44:54.871Z,22.66
2024-01-15T06:46:17.520Z,22.83
2024-01-15T06:46:54.836Z,23.02
2024-01-15T06:47:54.895Z,23.25
2024-01-15T06:48:55.014Z,23.49
2024-01-15T06:49:54.932Z,23.70
2024-01-15T06:50:54.888Z,23.93
2024-01-15T06:51:54.978Z,24.15
2024-01-15T06:52:54.835Z,24.35
2024-01-15T06:53:54.871Z,24.55
2024-01-15T06:54:54.978Z,24.73
2024-01-15T06:55:54.884Z,24.90
2024-01-15T06:56:54.873Z,25.06
2024-01-15T06:57:54.912Z,25.22
2024-01-15T06:58:54.908Z,25.38
2024-01-15T06:59:54.855Z,25.53
2024-01-15T07:00:54.967Z,25.65
2024-01-15T07:01:54.976Z,25.77
2024-01-15T07:02:54.907Z,25.89
2024-01-15T07:03:54.957Z,25.99
2024-01-15T07:04:54.902Z,26.11
2024-01-15T07:05:54.881Z,26.17
2024-01-15T07:06:54.956Z,26.23
2024-01-15T07:07:54.885Z,26.31
2024-01-15T07:08:54.899Z,26.39
2024-01-15T07:09:54.998Z,26.41
2024-01-15T07:10:55.081Z,26.49
2024-01-15T07:11:55.091Z,26.56
2024-01-15T07:12:55.273Z,26.59
2024-01-15T07:13:55.197Z,26.66
2024-01-15T07:14:55.237Z,26.71
2024-01-15T07:15:55.493Z,26.75
2024-01-15T07:16:55.333Z,26.76
2024-01-15T07:17:55.442Z,26.80
2024-01-15T07:18:55.507Z,26.85
2024-01-15T07:19:55.498Z,26.89
2024-01-15T07:20:55.497Z,26.91
2024-01-15T07:21:57.277Z,26.91
2024-01-15T07:22:55.584Z,26.96
2024-01-15T07:23:55.698Z,26.97
2024-01-15T07:24:55.779Z,27.00
2024-01-15T07:25:55.736Z,27.01
2024-01-15T07:26:55.757Z,27.01
2024-01-15T07:27:55.852Z,27.01
2024-01-15T07:28:55.838Z,27.00
2024-01-15T07:29:57.865Z,27.01
2024-01-15T07:30:55.962Z,27.01
2024-01-15T07:31:56.043Z,27.04
2024-01-15T07:32:55.948Z,27.04
2024-01-15T07:33:55.951Z,27.06
2024-01-15T07:34:56.111Z,27.03
2024-01-15T07:35:55.886Z,27.06
2024-01-15T07:36:55.958Z,27.10
2024-01-15T07:37:55.903Z,27.14
2024-01-15T07:38:55.877Z,27.18
2024-01-15T07:39:55.937Z,27.21
2024-01-15T07:40:55.913Z,27.20
2024-01-15T07:41:56.037Z,27.20
2024-01-15T07:42:55.966Z,27.18
2024-01-15T07:43:55.928Z,27.17
2024-01-15T07:44:55.892Z,27.15
2024-01-15T07:45:56.000Z,27.14
2024-01-15T07:46:55.872Z,27.17
2024-01-15T07:47:55.940Z,27.14
2024-01-15T07:48:55.980Z,27.17
2024-01-15T07:49:55.948Z,27.14
2024-01-15T07:50:55.890Z,27.14
2024-01-15T07:51:56.159Z,27.13
2024-01-15T07:52:55.914Z,27.14
2024-01-15T07:53:55.869Z,27.15
2024-01-15T07:54:55.943Z,27.15
2024-01-15T07:55:55.885Z,27.14
2024-01-15T07:56:55.936Z,27.17
2024-01-15T07:58:02.559Z,27.14
2024-01-15T07:58:56.910Z,27.15
2024-01-15T07:59:55.885Z,27.17
2024-01-15T08:00:56.009Z,27.18
2024-01-15T08:01:56.138Z,27.17
2024-01-15T08:02:55.933Z,27.18
2024-01-15T08:03:55.994Z,27.18
2024-01-15T08:04:55.938Z,27.17
2024-01-15T08:05:55.925Z,27.17
2024-01-15T08:06:56.131Z,27.17
2024-01-15T08:07:58.403Z,27.15
2024-01-15T08:08:55.958Z,27.18
2024-01-15T08:09:56.011Z,27.14
2024-01-15T08:10:55.901Z,27.13
2024-01-15T08:11:55.901Z,27.13
2024-01-15T08:12:56.026Z,27.13
2024-01-15T08:13:55.910Z,27.14
2024-01-15T08:14:55.954Z,27.14
2024-01-15T08:15:55.978Z,27.13
2024-01-15T08:16:55.973Z,27.14
2024-01-15T08:17:55.991Z,27.14
2024-01-15T08:18:56.132Z,27.11
2024-01-15T08:19:55.993Z,27.13
2024-01-15T08:20:55.975Z,27.13
2024-01-15T08:21:56.022Z,27.14
2024-01-15T08:22:55.952Z,27.13
2024-01-15T08:23:55.945Z,27.13
2024-01-15T08:24:55.960Z,27.11
2024-01-15T08:25:55.979Z,27.14
2024-01-15T08:26:56.004Z,27.14
2024-01-15T08:27:55.986Z,27.13
2024-01-15T08:28:55.957Z,27.13
2024-01-15T08:29:55.947Z,27.14
2024-01-15T08:30:56.069Z,27.13
2024-01-15T08:31:56.016Z,27.13
2024-01-15T08:32:58.340Z,27.13
2024-01-15T08:33:56.025Z,27.11
2024-01-15T08:34:56.596Z,27.08
2024-01-15T08:35:55.927Z,27.08
2024-01-15T08:36:56.022Z,27.07
2024-01-15T08:37:55.941Z,27.00
2024-01-15T08:38:56.030Z,26.97
2024-01-15T08:39:56.110Z,26.97
2024-01-15T08:40:55.993Z,26.97
2024-01-15T08:41:55.961Z,26.94
2024-01-15T08:42:56.019Z,26.99
2024-01-15T08:43:55.970Z,27.04
2024-01-15T08:44:55.984Z,27.08
2024-01-15T08:45:56.035Z,27.13
2024-01-15T08:46:56.579Z,27.20
2024-01-15T08:47:55.983Z,27.23
2024-01-15T08:48:56.039Z,27.24
2024-01-15T08:49:55.989Z,27.24
2024-01-15T08:50:55.954Z,27.25
2024-01-15T08:51:56.050Z,27.25
2024-01-15T08:52:56.022Z,27.27
2024-01-15T08:53:55.981Z,27.30
2024-01-15T08:54:55.972Z,27.27
2024-01-15T08:55:55.997Z,27.31
2024-01-15T08:56:56.005Z,27.31
2024-01-15T08:57:56.024Z,27.33
2024-01-15T08:58:55.984Z,27.34
2024-01-15T08:59:56.419Z,27.33
2024-01-15T09:00:56.067Z,27.33
2024-01-15T09:01:55.986Z,27.33
2024-01-15T09:02:55.993Z,27.33
2024-01-15T09:03:56.069Z,27.30
2024-01-15T09:04:56.082Z,27.33
2024-01-15T09:05:56.119Z,27.33
2024-01-15T09:06:56.029Z,27.35
2024-01-15T09:07:56.022Z,27.38
2024-01-15T09:08:56.002Z,27.35
2024-01-15T09:09:56.192Z,27.37
2024-01-15T09:10:56.040Z,27.37
2024-01-15T09:11:56.079Z,27.40
2024-01-15T09:12:56.244Z,27.38
2024-01-15T09:13:56.249Z,27.44
2024-01-15T09:14:56.264Z,27.44
2024-01-15T09:15:56.483Z,27.45
2024-01-15T09:16:56.329Z,27.48
2024-01-15T09:17:56.401Z,27.49
2024-01-15T09:18:56.637Z,27.48
2024-01-15T09:19:56.596Z,27.51
2024-01-15T09:20:56.584Z,27.51
2024-01-15T09:21:56.612Z,27.54
2024-01-15T09:22:56.691Z,27.52
2024-01-15T09:23:56.692Z,27.55
2024-01-15T09:24:56.851Z,27.56
2024-01-15T09:25:57.566Z,27.58
2024-01-15T09:26:57.144Z,27.58
2024-01-15T09:27:56.927Z,27.56
2024-01-15T09:28:56.980Z,27.56
2024-01-15T09:29:56.997Z,27.61
2024-01-15T09:30:57.235Z,27.65
2024-01-15T09:31:57.234Z,27.68
2024-01-15T09:32:57.687Z,27.75
2024-01-15T09:33:57.400Z,27.80
2024-01-15T09:34:57.315Z,27.83
2024-01-15T09:35:57.320Z,27.86
2024-01-15T09:36:57.359Z,27.89
2024-01-15T09:37:57.642Z,27.90
2024-01-15T09:38:58.082Z,27.92
2024-01-15T09:39:57.490Z,27.92
2024-01-15T09:40:57.549Z,27.96
2024-01-15T09:41:57.589Z,27.97
2024-01-15T09:42:57.596Z,27.97
2024-01-15T09:43:57.587Z,27.99
2024-01-15T09:44:57.634Z,27.68
2024-01-15T09:45:57.696Z,27.17
2024-01-15T09:46:57.694Z,26.91
2024-01-15T09:47:58.636Z,26.79
2024-01-15T09:48:57.893Z,26.71
2024-01-15T09:49:58.677Z,26.72
2024-01-15T09:50:57.820Z,26.73
2024-01-15T09:52:06.085Z,26.76
2024-01-15T09:52:59.072Z,26.76
2024-01-15T09:53:57.860Z,26.82
2024-01-15T09:54:57.977Z,26.90
2024-01-15T09:55:57.875Z,26.97
2024-01-15T09:56:57.876Z,27.06
2024-01-15T09:57:57.906Z,27.17
2024-01-15T09:58:58.622Z,27.21
2024-01-15T09:59:57.864Z,27.11
2024-01-15T10:00:57.980Z,27.04
2024-01-15T10:01:57.958Z,27.01
2024-01-15T10:02:58.120Z,26.68
2024-01-15T10:03:57.947Z,26.32
2024-01-15T10:04:57.949Z,26.01
2024-01-15T10:05:57.980Z,25.55
2024-01-15T10:06:57.984Z,25.42
2024-01-15T10:07:57.977Z,25.31
2024-01-15T10:08:58.168Z,25.31
2024-01-15T10:09:58.127Z,25.34
2024-01-15T10:10:58.117Z,25.44
2024-01-15T10:11:58.111Z,25.55
2024-01-15T10:12:58.222Z,25.66
2024-01-15T10:13:58.235Z,25.80
2024-01-15T10:14:58.276Z,25.91
2024-01-15T10:15:58.443Z,26.04
2024-01-15T10:16:58.332Z,26.08
2024-01-15T10:17:58.504Z,26.21
2024-01-15T10:18:58.715Z,26.30
2024-01-15T10:19:58.499Z,26.38
2024-01-15T10:20:58.440Z,26.45
2024-01-15T10:21:58.542Z,26.54
2024-01-15T10:22:58.526Z,26.62
2024-01-15T10:23:58.531Z,26.71
2024-01-15T10:24:58.660Z,26.71
2024-01-15T10:25:58.653Z,26.78
2024-01-15T10:26:58.714Z,26.82
2024-01-15T10:27:58.924Z,26.87
2024-01-15T10:28:59.099Z,26.87
2024-01-15T10:29:58.852Z,26.85
2024-01-15T10:30:58.972Z,26.78
2024-01-15T10:31:59.016Z,26.75
2024-01-15T10:32:58.982Z,26.69
2024-01-15T10:33:59.052Z,26.59
2024-01-15T10:34:59.069Z,26.59
2024-01-15T10:35:59.099Z,26.62
2024-01-15T10:36:59.158Z,26.65
2024-01-15T10:37:59.054Z,26.72
2024-01-15T10:38:59.125Z,26.76
2024-01-15T10:39:59.122Z,26.85
2024-01-15T10:40:59.172Z,26.90
2024-01-15T10:41:59.189Z,26.97
2024-01-15T10:42:59.289Z,27.03
2024-01-15T10:43:59.324Z,27.00
2024-01-15T10:44:59.313Z,26.90
2024-01-15T10:45:59.317Z,26.79
2024-01-15T10:46:59.364Z,26.71
2024-01-15T10:47:59.458Z,26.56
2024-01-15T10:48:59.655Z,26.54
2024-01-15T10:49:59.563Z,26.52
2024-01-15T10:50:59.618Z,26.52
2024-01-15T10:51:59.894Z,26.58
2024-01-15T10:52:59.770Z,26.65
2024-01-15T10:53:59.597Z,26.72
2024-01-15T10:55:01.167Z,26.80
2024-01-15T10:55:59.648Z,26.86
2024-01-15T10:56:59.734Z,26.93
2024-01-15T10:57:59.985Z,27.03
2024-01-15T10:59:00.860Z,27.10
2024-01-15T10:59:59.919Z,27.14
2024-01-15T11:01:00.007Z,27.23
2024-01-15T11:02:00.056Z,27.28
2024-01-15T11:03:00.077Z,27.33
2024-01-15T11:04:00.211Z,27.38
2024-01-15T11:05:00.200Z,27.48
2024-01-15T11:06:00.249Z,27.54
2024-01-15T11:07:00.308Z,27.56
2024-01-15T11:08:00.208Z,27.63
2024-01-15T11:09:00.537Z,27.71
2024-01-15T11:10:00.419Z,27.73
2024-01-15T11:11:00.293Z,27.76
2024-01-15T11:12:00.342Z,27.79
2024-01-15T11:13:00.355Z,27.83
2024-01-15T11:14:00.762Z,27.88
2024-01-15T11:15:00.368Z,27.90
2024-01-15T11:16:00.446Z,27.93
2024-01-15T11:17:00.512Z,27.97
2024-01-15T11:18:00.610Z,28.00
2024-01-15T11:19:00.754Z,28.00
2024-01-15T11:20:00.627Z,28.01
2024-01-15T11:21:00.520Z,28.01
2024-01-15T11:22:00.749Z,27.99
2024-01-15T11:23:00.577Z,27.93
2024-01-15T11:24:01.412Z,27.95
2024-01-15T11:25:00.680Z,27.96
2024-01-15T11:26:00.646Z,27.89
2024-01-15T11:27:00.706Z,27.90
2024-01-15T11:28:00.794Z,27.86
2024-01-15T11:29:01.507Z,27.79
2024-01-15T11:30:00.794Z,27.78
2024-01-15T11:31:00.950Z,27.73
2024-01-15T11:32:00.999Z,27.68
2024-01-15T11:33:01.008Z,27.71
2024-01-15T11:34:01.366Z,27.61
2024-01-15T11:35:01.416Z,27.68
2024-01-15T11:36:01.021Z,27.62
2024-01-15T11:37:01.165Z,27.54
2024-01-15T11:38:01.115Z,27.42
2024-01-15T11:39:01.177Z,27.25
2024-01-15T11:40:01.285Z,27.14
2024-01-15T11:41:01.192Z,27.08
2024-01-15T11:42:01.228Z,26.96
2024-01-15T11:43:01.421Z,26.87
2024-01-15T11:44:01.657Z,26.83
2024-01-15T11:45:01.302Z,26.82
2024-01-15T11:46:01.409Z,26.85
2024-01-15T11:47:01.297Z,26.89
2024-01-15T11:48:01.431Z,26.91
2024-01-15T11:49:01.748Z,26.99
2024-01-15T11:50:01.854Z,27.00
2024-01-15T11:51:01.438Z,27.04
2024-01-15T11:52:01.491Z,27.11
2024-01-15T11:53:04.589Z,27.18
2024-01-15T11:54:02.667Z,27.33
2024-01-15T11:55:01.520Z,27.55
2024-01-15T11:56:01.545Z,27.56
2024-01-15T11:57:01.518Z,27.41
2024-01-15T11:58:01.620Z,27.25
2024-01-15T11:59:04.423Z,27.08
2024-01-15T12:00:01.647Z,26.86
2024-01-15T12:01:01.763Z,26.55
2024-01-15T12:02:01.622Z,26.32
2024-01-15T12:03:01.508Z,26.10
2024-01-15T12:04:01.759Z,25.97
2024-01-15T12:05:01.612Z,25.87
2024-01-15T12:06:01.552Z,25.65
2024-01-15T12:07:01.617Z,25.35
2024-01-15T12:08:01.552Z,25.04
2024-01-15T12:09:01.547Z,24.74
2024-01-15T12:10:01.565Z,24.55
2024-01-15T12:11:01.581Z,24.46
2024-01-15T12:12:01.568Z,24.38
2024-01-15T12:13:01.634Z,24.11
2024-01-15T12:14:01.588Z,23.90
2024-01-15T12:15:01.970Z,23.72
2024-01-15T12:16:01.581Z,23.62
2024-01-15T12:17:04.474Z,23.57
2024-01-15T12:18:01.725Z,23.48
2024-01-15T12:19:01.725Z,23.35
2024-01-15T12:20:01.597Z,23.26
2024-01-15T12:21:01.574Z,23.19
2024-01-15T12:22:01.534Z,23.12
2024-01-15T12:23:03.444Z,23.04
2024-01-15T12:24:01.551Z,22.93
2024-01-15T12:25:01.550Z,22.83
2024-01-15T12:26:01.565Z,22.82
2024-01-15T12:27:01.526Z,22.84
2024-01-15T12:28:01.593Z,22.73
2024-01-15T12:29:01.537Z,22.71
2024-01-15T12:30:02.164Z,22.73
2024-01-15T12:31:01.837Z,22.76
2024-01-15T12:32:02.189Z,22.68
2024-01-15T12:33:02.248Z,22.71
2024-01-15T12:34:01.678Z,22.73
2024-01-15T12:35:04.336Z,22.67
2024-01-15T12:36:01.630Z,22.70
2024-01-15T12:37:01.627Z,22.71
2024-01-15T12:38:01.619Z,22.73
2024-01-15T12:39:01.578Z,22.60
2024-01-15T12:40:01.617Z,22.57
2024-01-15T12:41:01.576Z,22.55
2024-01-15T12:42:01.582Z,22.47
2024-01-15T12:43:01.624Z,22.47
2024-01-15T12:44:01.599Z,22.52
2024-01-15T12:45:01.601Z,22.53
2024-01-15T12:46:01.611Z,22.55
2024-01-15T12:47:01.606Z,22.52
2024-01-15T12:48:01.771Z,22.45
2024-01-15T12:49:01.651Z,22.40
2024-01-15T12:50:09.488Z,22.34
2024-01-15T12:51:02.590Z,22.29
2024-01-15T12:52:02.158Z,22.23
2024-01-15T12:53:01.611Z,22.13
2024-01-15T12:54:01.606Z,22.07